Westview Chinook — VG3278 — position and weather

sailwx.info

Track history (hours):
 
Tides and Currents Weather Stations Pressure Air Temp Water Temp Dewpoint Dewpoint Depression Visibility Wind Speed Wind Dir Waves Ship Positions

Westview Chinook

Last reported at 2014-Dec-18 09:33 UTC. Time now 2014-Dec-18 10:33 UTC.
Position N 49°13' W 122°45'.

Length 16 m; draft 3.5 m.

Type: Towing. MMSI: 316005622.

Date/timePositionNaut miles runAvg speedWind from/ knotsBaromVisibWave heightAir tempDewpointWater temp
2014-Dec-18 09:33N 49°13' W 122°45'2 1.9
2014-Dec-18 08:34N 49°13' W 122°48'0 0.5
2014-Dec-18 07:33N 49°13' W 122°48'5 5.4
2014-Dec-18 06:33N 49°12' W 122°39'3 2.7
2014-Dec-18 05:33N 49°12' W 122°44'2 1.6
2014-Dec-18 04:33N 49°11' W 122°41'3 2.6
2014-Dec-18 03:22N 49°13' W 122°45'4 4.7
2014-Dec-18 02:33N 49°13' W 122°51'5 4.7
2014-Dec-18 01:33N 49°11' W 122°58'5 5.2
2014-Dec-18 00:34N 49°12' W 123°06'6 5.7
2014-Dec-17 23:33N 49°14' W 123°14'1 1.4
2014-Dec-17 22:33N 49°15' W 123°15'4 3.7
2014-Dec-17 21:34N 49°13' W 123°20'4 3.6
2014-Dec-17 20:32N 49°15' W 123°15'0 0.0
2014-Dec-17 19:33N 49°15' W 123°15'0 0.0
2014-Dec-17 18:31N 49°15' W 123°15'2 2.0
2014-Dec-17 17:33N 49°14' W 123°13'4 3.7
2014-Dec-17 16:33N 49°12' W 123°08'3 2.7
2014-Dec-17 15:33N 49°13' W 123°12'5 5.3
2014-Dec-17 14:33N 49°16' W 123°19'7 6.7
2014-Dec-17 13:32N 49°21' W 123°27'6 5.9
2014-Dec-17 12:33N 49°26' W 123°28'2 0.7
2014-Dec-17 09:30N 49°28' W 123°28'6 5.8
2014-Dec-17 08:28N 49°23' W 123°26'5 5.2
2014-Dec-17 07:33N 49°18' W 123°22'5 5.3
2014-Dec-17 06:33N 49°15' W 123°16'2 2.4
2014-Dec-17 05:33N 49°14' W 123°13'5 5.5
2014-Dec-17 04:33N 49°12' W 123°05'7 6.6
2014-Dec-17 03:33N 49°11' W 122°55'3 2.7
2014-Dec-17 02:33N 49°09' W 122°59'4 4.3
2014-Dec-17 01:33N 49°07' W 123°05'4 4.3
2014-Dec-17 00:33N 49°07' W 123°11'5 5.1
2014-Dec-16 23:33N 49°06' W 123°19'8 7.6
2014-Dec-16 22:33N 49°03' W 123°30'7 6.6
2014-Dec-16 21:33N 48°58' W 123°37'6 6.0
2014-Dec-16 20:33N 48°52' W 123°38'3 3.1
2014-Dec-16 19:30N 48°56' W 123°37'5 5.1
2014-Dec-16 18:33N 49°00' W 123°36'5 5.2
2014-Dec-16 17:33N 49°03' W 123°29'6 5.8
2014-Dec-16 16:33N 49°05' W 123°21'6 5.6
2014-Dec-16 15:33N 49°08' W 123°13'6 5.9
2014-Dec-16 14:33N 49°08' W 123°04'5 4.7
2014-Dec-16 13:33N 49°09' W 122°57'2 1.6
2014-Dec-16 12:33N 49°11' W 122°55'6 5.6
2014-Dec-16 11:32N 49°12' W 123°04'1 1.1
2014-Dec-16 10:33N 49°12' W 123°05'3 2.8
2014-Dec-16 09:33N 49°13' W 123°10'6 5.9
2014-Dec-16 08:33N 49°15' W 123°18'3 2.8
2014-Dec-16 07:33N 49°14' W 123°14'6 5.5
2014-Dec-16 06:33N 49°12' W 123°06'6 5.9
2014-Dec-16 05:28N 49°12' W 122°56'7 7.2
2014-Dec-16 04:31N 49°14' W 122°46'1 1.5
2014-Dec-16 03:32N 49°15' W 122°44'3 3.1
2014-Dec-16 02:33N 49°13' W 122°48'5 4.8
2014-Dec-16 01:33N 49°11' W 122°55'5 5.1
2014-Dec-16 00:34N 49°09' W 123°02'3 2.9
2014-Dec-15 23:33N 49°07' W 123°05'0 0.0
2014-Dec-15 22:33N 49°07' W 123°05'0 0.0
2014-Dec-15 21:33N 49°07' W 123°05'0 0.0
2014-Dec-15 20:34N 49°07' W 123°05'5 5.3
2014-Dec-15 19:34N 49°10' W 122°58'2 1.7
2014-Dec-15 18:33N 49°10' W 122°56'3 3.3
2014-Dec-15 17:33N 49°13' W 122°53'7 6.5
2014-Dec-15 16:34N 49°11' W 122°43'2 1.5
2014-Dec-15 15:27N 49°11' W 122°41'7 0.4
2014-Dec-14 22:32N 49°13' W 122°51'7 6.9
2014-Dec-14 21:33N 49°12' W 123°02'4 4.3
2014-Dec-14 20:34N 49°12' W 123°08'2 1.6
2014-Dec-14 19:34N 49°13' W 123°10'5 5.0
2014-Dec-14 18:34N 49°18' W 123°13'6 6.3
2014-Dec-14 17:33N 49°18' W 123°03'0 0.0
2014-Dec-14 16:34N 49°18' W 123°03'1 0.7
2014-Dec-14 15:34N 49°18' W 123°04'6 6.0
2014-Dec-14 14:34N 49°19' W 123°13'6 6.1
2014-Dec-14 13:34N 49°17' W 123°22'6 6.2
2014-Dec-14 12:34N 49°16' W 123°32'6 6.3
2014-Dec-14 11:34N 49°14' W 123°41'6 6.3
2014-Dec-14 10:33N 49°13' W 123°50'4 3.6
2014-Dec-14 09:34N 49°10' W 123°53'8 8.1
2014-Dec-14 08:34N 49°14' W 123°42'1010.2
2014-Dec-14 07:34N 49°15' W 123°27'7 6.9
2014-Dec-14 06:33N 49°15' W 123°16'4 4.2
2014-Dec-14 05:34N 49°13' W 123°11'4 3.6
2014-Dec-14 04:34N 49°12' W 123°06'2 1.8
2014-Dec-14 03:34N 49°12' W 123°08'4 3.7
2014-Dec-14 02:33N 49°12' W 123°03'0 0.0
2014-Dec-14 01:33N 49°12' W 123°03'0 0.0
2014-Dec-14 00:32N 49°12' W 123°03'0 0.0
2014-Dec-13 23:32N 49°12' W 123°03'0 0.0
2014-Dec-13 22:32N 49°12' W 123°03'0 0.0
2014-Dec-13 21:32N 49°12' W 123°03'3 3.5
2014-Dec-13 20:33N 49°11' W 122°58'2 1.7
2014-Dec-13 19:33N 49°11' W 122°55'5 5.1
2014-Dec-13 18:33N 49°09' W 123°02'0 0.1
2014-Dec-13 17:33N 49°09' W 123°02'7 7.2
2014-Dec-13 16:33N 49°13' W 122°53'1 0.6
2014-Dec-13 15:33N 49°13' W 122°52'5 5.1
2014-Dec-13 14:33N 49°09' W 122°57'5 5.5
2014-Dec-13 13:33N 49°07' W 123°05'6 5.7
2014-Dec-13 12:33N 49°08' W 123°13'5 4.8
2014-Dec-13 11:33N 49°06' W 123°20'6 5.9
2014-Dec-13 10:33N 49°03' W 123°28'7 6.9
2014-Dec-13 09:33N 48°59' W 123°37'7 6.9
2014-Dec-13 08:33N 48°52' W 123°38'0 0.1
2014-Dec-13 07:33N 48°52' W 123°38'4 4.0
2014-Dec-13 06:32N 48°56' W 123°37'5 5.0
2014-Dec-13 05:33N 49°01' W 123°35'5 4.9
2014-Dec-13 04:33N 49°04' W 123°29'6 5.8
2014-Dec-13 03:33N 49°06' W 123°20'6 5.9
2014-Dec-13 02:33N 49°07' W 123°12'5 5.3
2014-Dec-13 01:33N 49°08' W 123°04'4 4.3
2014-Dec-13 00:33N 49°09' W 122°57'3 2.3
2014-Dec-12 23:18N 49°12' W 122°55'4 5.0
2014-Dec-12 22:33N 49°12' W 123°01'2 2.3
2014-Dec-12 21:33N 49°12' W 123°04'3 2.7
2014-Dec-12 20:33N 49°12' W 123°08'5 5.5
2014-Dec-12 19:33N 49°11' W 122°60'3 3.1
2014-Dec-12 18:33N 49°10' W 122°55'2 1.9
2014-Dec-12 17:33N 49°11' W 122°58'6 6.0
2014-Dec-12 16:33N 49°12' W 123°07'4 3.9
2014-Dec-12 15:33N 49°13' W 123°13'6 5.9
2014-Dec-12 14:33N 49°12' W 123°04'0 0.1
2014-Dec-12 11:30N 49°12' W 123°04'0 0.5
2014-Dec-12 10:34N 49°12' W 123°04'4 4.2
2014-Dec-12 09:34N 49°11' W 122°58'2 2.0
2014-Dec-12 08:33N 49°11' W 122°55'3 2.5
2014-Dec-12 07:33N 49°09' W 122°58'1 0.7
2014-Dec-12 06:33N 49°09' W 122°57'5 5.3
2014-Dec-12 05:34N 49°13' W 122°51'6 6.3
2014-Dec-12 04:34N 49°11' W 122°42'2 1.7
2014-Dec-12 03:34N 49°12' W 122°44'2 2.0
2014-Dec-12 02:32N 49°11' W 122°41'1 1.4
2014-Dec-12 01:33N 49°11' W 122°43'5 5.1
2014-Dec-12 00:33N 49°13' W 122°51'5 4.7
2014-Dec-11 23:33N 49°10' W 122°56'5 5.1
2014-Dec-11 22:33N 49°08' W 123°03'4 4.2
2014-Dec-11 21:33N 49°07' W 123°09'3 2.5
2014-Dec-11 20:33N 49°07' W 123°05'6 5.7
2014-Dec-11 19:33N 49°09' W 122°57'5 4.9
2014-Dec-11 18:33N 49°13' W 122°53'2 2.2
2014-Dec-11 17:33N 49°12' W 122°55'0 0.2
2014-Dec-11 16:33N 49°12' W 122°54'0 0.0
2014-Dec-11 15:33N 49°12' W 122°54'3 2.6
2014-Dec-11 14:33N 49°10' W 122°57'4 3.6
2014-Dec-11 13:31N 49°13' W 122°54'0 0.0
2014-Dec-11 12:33N 49°13' W 122°54'8 8.1
2014-Dec-11 11:33N 49°11' W 122°42'1 0.7
2014-Dec-11 10:33N 49°11' W 122°41'4 4.5
2014-Dec-11 09:33N 49°13' W 122°47'5 4.4
2014-Dec-11 08:32N 49°12' W 122°54'5 4.7
2014-Dec-11 07:33N 49°12' W 123°01'6 5.7
2014-Dec-11 06:33N 49°13' W 123°10'4 4.4
2014-Dec-11 05:33N 49°15' W 123°15'5 5.6
2014-Dec-11 04:33N 49°12' W 123°08'1 1.4
2014-Dec-11 03:33N 49°12' W 123°06'8 8.4
2014-Dec-11 02:33N 49°13' W 122°53'4 1.6
2014-Dec-11 00:04N 49°13' W 122°47'3 6.2
2014-Dec-10 23:33N 49°13' W 122°52'6 5.6
2014-Dec-10 22:33N 49°12' W 122°44'4 4.3
2014-Dec-10 21:33N 49°13' W 122°50'3 2.8
2014-Dec-10 20:33N 49°13' W 122°46'2 1.9
2014-Dec-10 19:32N 49°12' W 122°44'7 6.8
2014-Dec-10 18:29N 49°12' W 122°55'1 0.6
2014-Dec-10 17:33N 49°11' W 122°55'7 7.4
2014-Dec-10 16:34N 49°12' W 123°06'1 1.2
2014-Dec-10 15:33N 49°12' W 123°08'3 2.7
2014-Dec-10 14:33N 49°12' W 123°04'2 2.3
2014-Dec-10 13:33N 49°12' W 123°01'5 5.0
2014-Dec-10 12:33N 49°13' W 122°53'3 2.6
2014-Dec-10 11:33N 49°11' W 122°55'3 2.8
2014-Dec-10 10:33N 49°09' W 122°59'3 2.9
2014-Dec-10 09:33N 49°11' W 122°55'8 7.7
2014-Dec-10 08:33N 49°12' W 122°43'4 4.2
2014-Dec-10 07:33N 49°13' W 122°50'6 5.8
2014-Dec-10 06:33N 49°10' W 122°57'1 1.2
2014-Dec-10 05:34N 49°11' W 122°55'6 6.2
2014-Dec-10 04:33N 49°13' W 122°47'7 6.3
2014-Dec-10 03:30N 49°13' W 122°36'4 1.0
2014-Dec-09 23:33N 49°10' W 122°31'6 6.2
2014-Dec-09 22:33N 49°11' W 122°41'2 1.8
2014-Dec-09 21:34N 49°11' W 122°43'6 5.8
2014-Dec-09 20:33N 49°13' W 122°52'3 3.4
2014-Dec-09 19:34N 49°11' W 122°55'1 0.7
2014-Dec-09 18:33N 49°11' W 122°55'4 4.0
2014-Dec-09 17:33N 49°13' W 122°50'4 4.1
2014-Dec-09 16:33N 49°12' W 122°44'1 0.9
2014-Dec-09 15:26N 49°13' W 122°45'4 3.3
2014-Dec-09 14:19N 49°12' W 122°39'3 4.0
2014-Dec-09 13:33N 49°11' W 122°35'4 4.0
2014-Dec-09 12:33N 49°11' W 122°41'4 4.4
2014-Dec-09 11:33N 49°13' W 122°47'4 4.4
2014-Dec-09 10:33N 49°13' W 122°54'4 4.1
2014-Dec-09 09:33N 49°09' W 122°58'3 3.0
2014-Dec-09 08:32N 49°12' W 122°54'3 3.3
2014-Dec-09 07:33N 49°09' W 122°58'3 2.7
2014-Dec-09 06:33N 49°11' W 122°55'8 7.5
2014-Dec-09 05:33N 49°12' W 122°43'2 1.5
2014-Dec-09 04:30N 49°11' W 122°41'4 3.7
2014-Dec-09 03:30N 49°13' W 122°46'6 6.2
2014-Dec-09 02:33N 49°11' W 122°55'3 2.8
2014-Dec-09 01:33N 49°10' W 122°58'5 4.6
2014-Dec-09 00:33N 49°13' W 122°53'5 5.0
2014-Dec-08 23:33N 49°12' W 123°01'3 3.1
2014-Dec-08 22:33N 49°12' W 123°05'0 0.0
2014-Dec-08 21:33N 49°12' W 123°05'0 0.0
2014-Dec-08 20:33N 49°12' W 123°05'1 1.0
2014-Dec-08 19:33N 49°12' W 123°04'6 5.8
2014-Dec-08 18:33N 49°11' W 122°55'0 0.1
2014-Dec-08 17:33N 49°11' W 122°55'1 0.5
2014-Dec-08 16:33N 49°12' W 122°55'3 2.9
2014-Dec-08 15:33N 49°09' W 122°58'3 3.0
2014-Dec-08 14:33N 49°09' W 123°02'1 0.8
2014-Dec-08 13:33N 49°09' W 123°01'5 5.3
2014-Dec-08 12:33N 49°07' W 123°08'6 6.3
2014-Dec-08 11:34N 49°07' W 123°17'5 5.0
2014-Dec-08 10:33N 49°07' W 123°25'4 4.4
2014-Dec-08 09:34N 49°08' W 123°31'  
Track history (hours):
 
Tides and Currents Weather Stations Pressure Air Temp Water Temp Dewpoint Dewpoint Depression Visibility Wind Speed Wind Dir Waves Ship Positions

Westview Chinook

Last reported at 2014-Dec-18 09:33 UTC. Time now 2014-Dec-18 10:33 UTC.
Position N 49°13' W 122°45'.

Length 16 m; draft 3.5 m.

Type: Towing. MMSI: 316005622.

Date/timePositionNaut miles runAvg speedWind from/ knotsBaromVisibWave heightAir tempDewpointWater temp
2014-Dec-18 09:33N 49°13' W 122°45'2 1.9
2014-Dec-18 08:34N 49°13' W 122°48'0 0.5
2014-Dec-18 07:33N 49°13' W 122°48'5 5.4
2014-Dec-18 06:33N 49°12' W 122°39'3 2.7
2014-Dec-18 05:33N 49°12' W 122°44'2 1.6
2014-Dec-18 04:33N 49°11' W 122°41'3 2.6
2014-Dec-18 03:22N 49°13' W 122°45'4 4.7
2014-Dec-18 02:33N 49°13' W 122°51'5 4.7
2014-Dec-18 01:33N 49°11' W 122°58'5 5.2
2014-Dec-18 00:34N 49°12' W 123°06'6 5.7
2014-Dec-17 23:33N 49°14' W 123°14'1 1.4
2014-Dec-17 22:33N 49°15' W 123°15'4 3.7
2014-Dec-17 21:34N 49°13' W 123°20'4 3.6
2014-Dec-17 20:32N 49°15' W 123°15'0 0.0
2014-Dec-17 19:33N 49°15' W 123°15'0 0.0
2014-Dec-17 18:31N 49°15' W 123°15'2 2.0
2014-Dec-17 17:33N 49°14' W 123°13'4 3.7
2014-Dec-17 16:33N 49°12' W 123°08'3 2.7
2014-Dec-17 15:33N 49°13' W 123°12'5 5.3
2014-Dec-17 14:33N 49°16' W 123°19'7 6.7
2014-Dec-17 13:32N 49°21' W 123°27'6 5.9
2014-Dec-17 12:33N 49°26' W 123°28'2 0.7
2014-Dec-17 09:30N 49°28' W 123°28'6 5.8
2014-Dec-17 08:28N 49°23' W 123°26'5 5.2
2014-Dec-17 07:33N 49°18' W 123°22'5 5.3
2014-Dec-17 06:33N 49°15' W 123°16'2 2.4
2014-Dec-17 05:33N 49°14' W 123°13'5 5.5
2014-Dec-17 04:33N 49°12' W 123°05'7 6.6
2014-Dec-17 03:33N 49°11' W 122°55'3 2.7
2014-Dec-17 02:33N 49°09' W 122°59'4 4.3
2014-Dec-17 01:33N 49°07' W 123°05'4 4.3
2014-Dec-17 00:33N 49°07' W 123°11'5 5.1
2014-Dec-16 23:33N 49°06' W 123°19'8 7.6
2014-Dec-16 22:33N 49°03' W 123°30'7 6.6
2014-Dec-16 21:33N 48°58' W 123°37'6 6.0
2014-Dec-16 20:33N 48°52' W 123°38'3 3.1
2014-Dec-16 19:30N 48°56' W 123°37'5 5.1
2014-Dec-16 18:33N 49°00' W 123°36'5 5.2
2014-Dec-16 17:33N 49°03' W 123°29'6 5.8
2014-Dec-16 16:33N 49°05' W 123°21'6 5.6
2014-Dec-16 15:33N 49°08' W 123°13'6 5.9
2014-Dec-16 14:33N 49°08' W 123°04'5 4.7
2014-Dec-16 13:33N 49°09' W 122°57'2 1.6
2014-Dec-16 12:33N 49°11' W 122°55'6 5.6
2014-Dec-16 11:32N 49°12' W 123°04'1 1.1
2014-Dec-16 10:33N 49°12' W 123°05'3 2.8
2014-Dec-16 09:33N 49°13' W 123°10'6 5.9
2014-Dec-16 08:33N 49°15' W 123°18'3 2.8
2014-Dec-16 07:33N 49°14' W 123°14'6 5.5
2014-Dec-16 06:33N 49°12' W 123°06'6 5.9
2014-Dec-16 05:28N 49°12' W 122°56'7 7.2
2014-Dec-16 04:31N 49°14' W 122°46'1 1.5
2014-Dec-16 03:32N 49°15' W 122°44'3 3.1
2014-Dec-16 02:33N 49°13' W 122°48'5 4.8
2014-Dec-16 01:33N 49°11' W 122°55'5 5.1
2014-Dec-16 00:34N 49°09' W 123°02'3 2.9
2014-Dec-15 23:33N 49°07' W 123°05'0 0.0
2014-Dec-15 22:33N 49°07' W 123°05'0 0.0
2014-Dec-15 21:33N 49°07' W 123°05'0 0.0
2014-Dec-15 20:34N 49°07' W 123°05'5 5.3
2014-Dec-15 19:34N 49°10' W 122°58'2 1.7
2014-Dec-15 18:33N 49°10' W 122°56'3 3.3
2014-Dec-15 17:33N 49°13' W 122°53'7 6.5
2014-Dec-15 16:34N 49°11' W 122°43'2 1.5
2014-Dec-15 15:27N 49°11' W 122°41'7 0.4
2014-Dec-14 22:32N 49°13' W 122°51'7 6.9
2014-Dec-14 21:33N 49°12' W 123°02'4 4.3
2014-Dec-14 20:34N 49°12' W 123°08'2 1.6
2014-Dec-14 19:34N 49°13' W 123°10'5 5.0
2014-Dec-14 18:34N 49°18' W 123°13'6 6.3
2014-Dec-14 17:33N 49°18' W 123°03'0 0.0
2014-Dec-14 16:34N 49°18' W 123°03'1 0.7
2014-Dec-14 15:34N 49°18' W 123°04'6 6.0
2014-Dec-14 14:34N 49°19' W 123°13'6 6.1
2014-Dec-14 13:34N 49°17' W 123°22'6 6.2
2014-Dec-14 12:34N 49°16' W 123°32'6 6.3
2014-Dec-14 11:34N 49°14' W 123°41'6 6.3
2014-Dec-14 10:33N 49°13' W 123°50'4 3.6
2014-Dec-14 09:34N 49°10' W 123°53'8 8.1
2014-Dec-14 08:34N 49°14' W 123°42'1010.2
2014-Dec-14 07:34N 49°15' W 123°27'7 6.9
2014-Dec-14 06:33N 49°15' W 123°16'4 4.2
2014-Dec-14 05:34N 49°13' W 123°11'4 3.6
2014-Dec-14 04:34N 49°12' W 123°06'2 1.8
2014-Dec-14 03:34N 49°12' W 123°08'4 3.7
2014-Dec-14 02:33N 49°12' W 123°03'0 0.0
2014-Dec-14 01:33N 49°12' W 123°03'0 0.0
2014-Dec-14 00:32N 49°12' W 123°03'0 0.0
2014-Dec-13 23:32N 49°12' W 123°03'0 0.0
2014-Dec-13 22:32N 49°12' W 123°03'0 0.0
2014-Dec-13 21:32N 49°12' W 123°03'3 3.5
2014-Dec-13 20:33N 49°11' W 122°58'2 1.7
2014-Dec-13 19:33N 49°11' W 122°55'5 5.1
2014-Dec-13 18:33N 49°09' W 123°02'0 0.1
2014-Dec-13 17:33N 49°09' W 123°02'7 7.2
2014-Dec-13 16:33N 49°13' W 122°53'1 0.6
2014-Dec-13 15:33N 49°13' W 122°52'5 5.1
2014-Dec-13 14:33N 49°09' W 122°57'5 5.5
2014-Dec-13 13:33N 49°07' W 123°05'6 5.7
2014-Dec-13 12:33N 49°08' W 123°13'5 4.8
2014-Dec-13 11:33N 49°06' W 123°20'6 5.9
2014-Dec-13 10:33N 49°03' W 123°28'7 6.9
2014-Dec-13 09:33N 48°59' W 123°37'7 6.9
2014-Dec-13 08:33N 48°52' W 123°38'0 0.1
2014-Dec-13 07:33N 48°52' W 123°38'4 4.0
2014-Dec-13 06:32N 48°56' W 123°37'5 5.0
2014-Dec-13 05:33N 49°01' W 123°35'5 4.9
2014-Dec-13 04:33N 49°04' W 123°29'6 5.8
2014-Dec-13 03:33N 49°06' W 123°20'6 5.9
2014-Dec-13 02:33N 49°07' W 123°12'5 5.3
2014-Dec-13 01:33N 49°08' W 123°04'4 4.3
2014-Dec-13 00:33N 49°09' W 122°57'3 2.3
2014-Dec-12 23:18N 49°12' W 122°55'4 5.0
2014-Dec-12 22:33N 49°12' W 123°01'2 2.3
2014-Dec-12 21:33N 49°12' W 123°04'3 2.7
2014-Dec-12 20:33N 49°12' W 123°08'5 5.5
2014-Dec-12 19:33N 49°11' W 122°60'3 3.1
2014-Dec-12 18:33N 49°10' W 122°55'2 1.9
2014-Dec-12 17:33N 49°11' W 122°58'6 6.0
2014-Dec-12 16:33N 49°12' W 123°07'4 3.9
2014-Dec-12 15:33N 49°13' W 123°13'6 5.9
2014-Dec-12 14:33N 49°12' W 123°04'0 0.1
2014-Dec-12 11:30N 49°12' W 123°04'0 0.5
2014-Dec-12 10:34N 49°12' W 123°04'4 4.2
2014-Dec-12 09:34N 49°11' W 122°58'2 2.0
2014-Dec-12 08:33N 49°11' W 122°55'3 2.5
2014-Dec-12 07:33N 49°09' W 122°58'1 0.7
2014-Dec-12 06:33N 49°09' W 122°57'5 5.3
2014-Dec-12 05:34N 49°13' W 122°51'6 6.3
2014-Dec-12 04:34N 49°11' W 122°42'2 1.7
2014-Dec-12 03:34N 49°12' W 122°44'2 2.0
2014-Dec-12 02:32N 49°11' W 122°41'1 1.4
2014-Dec-12 01:33N 49°11' W 122°43'5 5.1
2014-Dec-12 00:33N 49°13' W 122°51'5 4.7
2014-Dec-11 23:33N 49°10' W 122°56'5 5.1
2014-Dec-11 22:33N 49°08' W 123°03'4 4.2
2014-Dec-11 21:33N 49°07' W 123°09'3 2.5
2014-Dec-11 20:33N 49°07' W 123°05'6 5.7
2014-Dec-11 19:33N 49°09' W 122°57'5 4.9
2014-Dec-11 18:33N 49°13' W 122°53'2 2.2
2014-Dec-11 17:33N 49°12' W 122°55'0 0.2
2014-Dec-11 16:33N 49°12' W 122°54'0 0.0
2014-Dec-11 15:33N 49°12' W 122°54'3 2.6
2014-Dec-11 14:33N 49°10' W 122°57'4 3.6
2014-Dec-11 13:31N 49°13' W 122°54'0 0.0
2014-Dec-11 12:33N 49°13' W 122°54'8 8.1
2014-Dec-11 11:33N 49°11' W 122°42'1 0.7
2014-Dec-11 10:33N 49°11' W 122°41'4 4.5
2014-Dec-11 09:33N 49°13' W 122°47'5 4.4
2014-Dec-11 08:32N 49°12' W 122°54'5 4.7
2014-Dec-11 07:33N 49°12' W 123°01'6 5.7
2014-Dec-11 06:33N 49°13' W 123°10'4 4.4
2014-Dec-11 05:33N 49°15' W 123°15'5 5.6
2014-Dec-11 04:33N 49°12' W 123°08'1 1.4
2014-Dec-11 03:33N 49°12' W 123°06'8 8.4
2014-Dec-11 02:33N 49°13' W 122°53'4 1.6
2014-Dec-11 00:04N 49°13' W 122°47'3 6.2
2014-Dec-10 23:33N 49°13' W 122°52'6 5.6
2014-Dec-10 22:33N 49°12' W 122°44'4 4.3
2014-Dec-10 21:33N 49°13' W 122°50'3 2.8
2014-Dec-10 20:33N 49°13' W 122°46'2 1.9
2014-Dec-10 19:32N 49°12' W 122°44'7 6.8
2014-Dec-10 18:29N 49°12' W 122°55'1 0.6
2014-Dec-10 17:33N 49°11' W 122°55'7 7.4
2014-Dec-10 16:34N 49°12' W 123°06'1 1.2
2014-Dec-10 15:33N 49°12' W 123°08'3 2.7
2014-Dec-10 14:33N 49°12' W 123°04'2 2.3
2014-Dec-10 13:33N 49°12' W 123°01'5 5.0
2014-Dec-10 12:33N 49°13' W 122°53'3 2.6
2014-Dec-10 11:33N 49°11' W 122°55'3 2.8
2014-Dec-10 10:33N 49°09' W 122°59'3 2.9
2014-Dec-10 09:33N 49°11' W 122°55'8 7.7
2014-Dec-10 08:33N 49°12' W 122°43'4 4.2
2014-Dec-10 07:33N 49°13' W 122°50'6 5.8
2014-Dec-10 06:33N 49°10' W 122°57'1 1.2
2014-Dec-10 05:34N 49°11' W 122°55'6 6.2
2014-Dec-10 04:33N 49°13' W 122°47'7 6.3
2014-Dec-10 03:30N 49°13' W 122°36'4 1.0
2014-Dec-09 23:33N 49°10' W 122°31'6 6.2
2014-Dec-09 22:33N 49°11' W 122°41'2 1.8
2014-Dec-09 21:34N 49°11' W 122°43'6 5.8
2014-Dec-09 20:33N 49°13' W 122°52'3 3.4
2014-Dec-09 19:34N 49°11' W 122°55'1 0.7
2014-Dec-09 18:33N 49°11' W 122°55'4 4.0
2014-Dec-09 17:33N 49°13' W 122°50'4 4.1
2014-Dec-09 16:33N 49°12' W 122°44'1 0.9
2014-Dec-09 15:26N 49°13' W 122°45'4 3.3
2014-Dec-09 14:19N 49°12' W 122°39'3 4.0
2014-Dec-09 13:33N 49°11' W 122°35'4 4.0
2014-Dec-09 12:33N 49°11' W 122°41'4 4.4
2014-Dec-09 11:33N 49°13' W 122°47'4 4.4
2014-Dec-09 10:33N 49°13' W 122°54'4 4.1
2014-Dec-09 09:33N 49°09' W 122°58'3 3.0
2014-Dec-09 08:32N 49°12' W 122°54'3 3.3
2014-Dec-09 07:33N 49°09' W 122°58'3 2.7
2014-Dec-09 06:33N 49°11' W 122°55'8 7.5
2014-Dec-09 05:33N 49°12' W 122°43'2 1.5
2014-Dec-09 04:30N 49°11' W 122°41'4 3.7
2014-Dec-09 03:30N 49°13' W 122°46'6 6.2
2014-Dec-09 02:33N 49°11' W 122°55'3 2.8
2014-Dec-09 01:33N 49°10' W 122°58'5 4.6
2014-Dec-09 00:33N 49°13' W 122°53'5 5.0
2014-Dec-08 23:33N 49°12' W 123°01'3 3.1
2014-Dec-08 22:33N 49°12' W 123°05'0 0.0
2014-Dec-08 21:33N 49°12' W 123°05'0 0.0
2014-Dec-08 20:33N 49°12' W 123°05'1 1.0
2014-Dec-08 19:33N 49°12' W 123°04'6 5.8
2014-Dec-08 18:33N 49°11' W 122°55'0 0.1
2014-Dec-08 17:33N 49°11' W 122°55'1 0.5
2014-Dec-08 16:33N 49°12' W 122°55'3 2.9
2014-Dec-08 15:33N 49°09' W 122°58'3 3.0
2014-Dec-08 14:33N 49°09' W 123°02'1 0.8
2014-Dec-08 13:33N 49°09' W 123°01'5 5.3
2014-Dec-08 12:33N 49°07' W 123°08'6 6.3
2014-Dec-08 11:34N 49°07' W 123°17'5 5.0
2014-Dec-08 10:33N 49°07' W 123°25'4 4.4
2014-Dec-08 09:34N 49°08' W 123°31'  

Dump ship's entire track history